sensor_id;sensor_type;location;lat;lon;timestamp;pressure;altitude;pressure_sealevel;temperature;humidity
61436;BME280;47304;47.456;19.160;2023-03-19T00:00:38;100690.97;;;4.14;58.47
61436;BME280;47304;47.456;19.160;2023-03-19T00:03:05;100688.15;;;4.13;58.43
61436;BME280;47304;47.456;19.160;2023-03-19T00:05:31;100694.05;;;4.14;58.59
61436;BME280;47304;47.456;19.160;2023-03-19T00:07:58;100687.63;;;4.13;58.55
61436;BME280;47304;47.456;19.160;2023-03-19T00:10:25;100690.38;;;4.13;58.56
61436;BME280;47304;47.456;19.160;2023-03-19T00:12:52;100684.97;;;4.11;58.48
61436;BME280;47304;47.456;19.160;2023-03-19T00:15:19;100682.70;;;4.11;58.45
61436;BME280;47304;47.456;19.160;2023-03-19T00:17:46;100679.24;;;4.12;58.52
61436;BME280;47304;47.456;19.160;2023-03-19T00:20:12;100680.78;;;4.10;58.58
61436;BME280;47304;47.456;19.160;2023-03-19T00:22:39;100678.30;;;4.09;58.46
61436;BME280;47304;47.456;19.160;2023-03-19T00:25:07;100677.73;;;4.07;58.65
61436;BME280;47304;47.456;19.160;2023-03-19T00:27:36;100684.65;;;4.06;58.80
61436;BME280;47304;47.456;19.160;2023-03-19T00:30:06;100679.20;;;4.04;58.69
61436;BME280;47304;47.456;19.160;2023-03-19T00:32:34;100676.36;;;4.02;58.45
61436;BME280;47304;47.456;19.160;2023-03-19T00:35:02;100673.48;;;3.98;58.47
61436;BME280;47304;47.456;19.160;2023-03-19T00:37:28;100675.08;;;3.94;58.53
61436;BME280;47304;47.456;19.160;2023-03-19T00:39:56;100666.73;;;3.93;58.50
61436;BME280;47304;47.456;19.160;2023-03-19T00:42:22;100663.41;;;3.93;58.53
61436;BME280;47304;47.456;19.160;2023-03-19T00:44:49;100658.55;;;3.92;58.54
61436;BME280;47304;47.456;19.160;2023-03-19T00:47:16;100658.91;;;3.93;58.54
61436;BME280;47304;47.456;19.160;2023-03-19T00:49:43;100659.95;;;3.93;58.56
61436;BME280;47304;47.456;19.160;2023-03-19T00:52:10;100658.00;;;3.92;58.51
61436;BME280;47304;47.456;19.160;2023-03-19T00:54:37;100658.11;;;3.89;58.44
61436;BME280;47304;47.456;19.160;2023-03-19T00:57:03;100660.17;;;3.89;58.55
61436;BME280;47304;47.456;19.160;2023-03-19T00:59:30;100655.86;;;3.89;58.39
61436;BME280;47304;47.456;19.160;2023-03-19T01:01:57;100654.15;;;3.90;58.51
61436;BME280;47304;47.456;19.160;2023-03-19T01:04:24;100658.19;;;3.91;58.47
61436;BME280;47304;47.456;19.160;2023-03-19T01:06:50;100656.77;;;3.90;58.47
61436;BME280;47304;47.456;19.160;2023-03-19T01:09:17;100658.09;;;3.88;58.48
61436;BME280;47304;47.456;19.160;2023-03-19T01:11:44;100650.55;;;3.86;58.41
61436;BME280;47304;47.456;19.160;2023-03-19T01:14:10;100643.30;;;3.81;58.41
61436;BME280;47304;47.456;19.160;2023-03-19T01:16:37;100642.89;;;3.79;58.49
61436;BME280;47304;47.456;19.160;2023-03-19T01:19:04;100650.67;;;3.79;58.80
61436;BME280;47304;47.456;19.160;2023-03-19T01:21:30;100651.69;;;3.78;58.83
61436;BME280;47304;47.456;19.160;2023-03-19T01:23:57;100653.38;;;3.76;58.86
61436;BME280;47304;47.456;19.160;2023-03-19T01:26:24;100653.29;;;3.73;58.62
61436;BME280;47304;47.456;19.160;2023-03-19T01:28:51;100657.15;;;3.70;58.69
61436;BME280;47304;47.456;19.160;2023-03-19T01:31:17;100654.11;;;3.67;58.89
61436;BME280;47304;47.456;19.160;2023-03-19T01:33:44;100654.59;;;3.65;58.84
61436;BME280;47304;47.456;19.160;2023-03-19T01:36:11;100653.86;;;3.64;58.70
61436;BME280;47304;47.456;19.160;2023-03-19T01:38:37;100652.06;;;3.62;58.77
61436;BME280;47304;47.456;19.160;2023-03-19T01:41:04;100654.11;;;3.61;58.96
61436;BME280;47304;47.456;19.160;2023-03-19T01:43:31;100655.39;;;3.58;58.98
61436;BME280;47304;47.456;19.160;2023-03-19T01:48:46;100650.86;;;3.52;59.00
61436;BME280;47304;47.456;19.160;2023-03-19T01:51:20;100659.96;;;3.50;59.14
61436;BME280;47304;47.456;19.160;2023-03-19T01:53:52;100657.27;;;3.47;59.09
61436;BME280;47304;47.456;19.160;2023-03-19T01:56:29;100658.79;;;3.45;59.03
61436;BME280;47304;47.456;19.160;2023-03-19T01:59:06;100661.70;;;3.44;59.14
61436;BME280;47304;47.456;19.160;2023-03-19T02:01:37;100663.87;;;3.41;59.27
61436;BME280;47304;47.456;19.160;2023-03-19T02:04:06;100666.26;;;3.41;59.14
61436;BME280;47304;47.456;19.160;2023-03-19T02:06:33;100667.08;;;3.39;59.05
61436;BME280;47304;47.456;19.160;2023-03-19T02:09:01;100664.27;;;3.38;59.08
61436;BME280;47304;47.456;19.160;2023-03-19T02:11:28;100657.60;;;3.35;59.10
61436;BME280;47304;47.456;19.160;2023-03-19T02:13:56;100657.34;;;3.33;59.08
61436;BME280;47304;47.456;19.160;2023-03-19T02:16:23;100656.09;;;3.32;59.27
61436;BME280;47304;47.456;19.160;2023-03-19T02:18:50;100655.34;;;3.30;59.16
61436;BME280;47304;47.456;19.160;2023-03-19T02:21:18;100658.86;;;3.27;59.23
61436;BME280;47304;47.456;19.160;2023-03-19T02:26:26;100650.52;;;3.21;59.32
61436;BME280;47304;47.456;19.160;2023-03-19T02:28:55;100655.17;;;3.19;59.37
61436;BME280;47304;47.456;19.160;2023-03-19T02:31:22;100654.64;;;3.20;59.42
61436;BME280;47304;47.456;19.160;2023-03-19T02:34:04;100649.64;;;3.20;59.53
61436;BME280;47304;47.456;19.160;2023-03-19T02:36:41;100650.14;;;3.20;59.49
61436;BME280;47304;47.456;19.160;2023-03-19T02:42:08;100647.02;;;3.20;59.35
61436;BME280;47304;47.456;19.160;2023-03-19T02:44:35;100646.31;;;3.19;59.43
61436;BME280;47304;47.456;19.160;2023-03-19T02:47:03;100649.09;;;3.19;59.48
61436;BME280;47304;47.456;19.160;2023-03-19T02:49:29;100650.80;;;3.19;59.31
61436;BME280;47304;47.456;19.160;2023-03-19T02:51:56;100649.39;;;3.18;59.31
61436;BME280;47304;47.456;19.160;2023-03-19T02:54:22;100647.98;;;3.17;59.26
61436;BME280;47304;47.456;19.160;2023-03-19T02:56:49;100647.94;;;3.16;59.37
61436;BME280;47304;47.456;19.160;2023-03-19T02:59:16;100640.81;;;3.15;59.35
61436;BME280;47304;47.456;19.160;2023-03-19T03:01:42;100636.08;;;3.13;59.33
61436;BME280;47304;47.456;19.160;2023-03-19T03:04:09;100634.81;;;3.11;59.39
61436;BME280;47304;47.456;19.160;2023-03-19T03:06:35;100632.21;;;3.11;59.39
61436;BME280;47304;47.456;19.160;2023-03-19T03:09:02;100634.11;;;3.11;59.33
61436;BME280;47304;47.456;19.160;2023-03-19T03:11:29;100636.19;;;3.11;59.30
61436;BME280;47304;47.456;19.160;2023-03-19T03:13:55;100634.10;;;3.11;59.32
61436;BME280;47304;47.456;19.160;2023-03-19T03:16:22;100636.33;;;3.10;59.16
61436;BME280;47304;47.456;19.160;2023-03-19T03:18:48;100639.58;;;3.09;59.38
61436;BME280;47304;47.456;19.160;2023-03-19T03:21:15;100635.39;;;3.08;59.43
61436;BME280;47304;47.456;19.160;2023-03-19T03:23:42;100640.92;;;3.08;59.42
61436;BME280;47304;47.456;19.160;2023-03-19T03:26:08;100640.71;;;3.07;59.35
61436;BME280;47304;47.456;19.160;2023-03-19T03:28:35;100641.55;;;3.06;59.38
61436;BME280;47304;47.456;19.160;2023-03-19T03:31:01;100639.77;;;3.05;59.37
61436;BME280;47304;47.456;19.160;2023-03-19T03:33:29;100636.98;;;3.04;59.30
61436;BME280;47304;47.456;19.160;2023-03-19T03:35:56;100633.48;;;3.03;59.53
61436;BME280;47304;47.456;19.160;2023-03-19T03:38:22;100634.14;;;3.02;59.36
61436;BME280;47304;47.456;19.160;2023-03-19T03:40:50;100636.36;;;3.01;59.46
61436;BME280;47304;47.456;19.160;2023-03-19T03:43:17;100637.83;;;2.99;59.58
61436;BME280;47304;47.456;19.160;2023-03-19T03:45:44;100643.35;;;2.98;59.62
61436;BME280;47304;47.456;19.160;2023-03-19T03:48:11;100640.70;;;2.96;59.54
61436;BME280;47304;47.456;19.160;2023-03-19T03:50:37;100642.55;;;2.95;59.69
61436;BME280;47304;47.456;19.160;2023-03-19T03:53:04;100639.02;;;2.92;59.78
61436;BME280;47304;47.456;19.160;2023-03-19T03:55:31;100637.41;;;2.91;59.73
61436;BME280;47304;47.456;19.160;2023-03-19T03:57:58;100638.80;;;2.92;59.73
61436;BME280;47304;47.456;19.160;2023-03-19T04:00:24;100636.20;;;2.91;59.79
61436;BME280;47304;47.456;19.160;2023-03-19T04:02:51;100633.58;;;2.90;59.91
61436;BME280;47304;47.456;19.160;2023-03-19T04:05:18;100638.51;;;2.88;60.00
61436;BME280;47304;47.456;19.160;2023-03-19T04:07:45;100643.46;;;2.86;60.07
61436;BME280;47304;47.456;19.160;2023-03-19T04:10:12;100646.83;;;2.84;59.91
61436;BME280;47304;47.456;19.160;2023-03-19T04:12:39;100645.18;;;2.81;59.91
61436;BME280;47304;47.456;19.160;2023-03-19T04:15:08;100647.02;;;2.79;60.20
61436;BME280;47304;47.456;19.160;2023-03-19T04:17:35;100647.30;;;2.77;60.28
61436;BME280;47304;47.456;19.160;2023-03-19T04:20:02;100653.63;;;2.75;60.22
61436;BME280;47304;47.456;19.160;2023-03-19T04:22:30;100652.17;;;2.73;60.36
61436;BME280;47304;47.456;19.160;2023-03-19T04:24:57;100653.33;;;2.72;60.47
61436;BME280;47304;47.456;19.160;2023-03-19T04:27:24;100648.58;;;2.69;60.33
61436;BME280;47304;47.456;19.160;2023-03-19T04:29:50;100642.23;;;2.66;60.25
61436;BME280;47304;47.456;19.160;2023-03-19T04:32:17;100640.37;;;2.62;60.52
61436;BME280;47304;47.456;19.160;2023-03-19T04:34:44;100638.44;;;2.57;60.37
61436;BME280;47304;47.456;19.160;2023-03-19T04:37:10;100639.27;;;2.50;60.51
61436;BME280;47304;47.456;19.160;2023-03-19T04:39:37;100635.23;;;2.44;60.61
61436;BME280;47304;47.456;19.160;2023-03-19T04:42:03;100633.00;;;2.40;60.61
61436;BME280;47304;47.456;19.160;2023-03-19T04:44:30;100632.45;;;2.35;60.91
61436;BME280;47304;47.456;19.160;2023-03-19T04:46:56;100627.23;;;2.29;61.10
61436;BME280;47304;47.456;19.160;2023-03-19T04:49:23;100630.34;;;2.25;61.06
61436;BME280;47304;47.456;19.160;2023-03-19T04:51:50;100635.04;;;2.21;61.37
61436;BME280;47304;47.456;19.160;2023-03-19T04:54:16;100635.11;;;2.18;61.48
61436;BME280;47304;47.456;19.160;2023-03-19T04:56:43;100637.93;;;2.15;61.45
61436;BME280;47304;47.456;19.160;2023-03-19T04:59:09;100637.48;;;2.12;61.55
61436;BME280;47304;47.456;19.160;2023-03-19T05:01:36;100642.39;;;2.10;61.86
61436;BME280;47304;47.456;19.160;2023-03-19T05:04:03;100649.23;;;2.08;61.83
61436;BME280;47304;47.456;19.160;2023-03-19T05:06:29;100649.65;;;2.05;61.76
61436;BME280;47304;47.456;19.160;2023-03-19T05:08:56;100646.96;;;2.02;61.82
61436;BME280;47304;47.456;19.160;2023-03-19T05:11:23;100648.07;;;2.00;61.67
61436;BME280;47304;47.456;19.160;2023-03-19T05:13:49;100650.02;;;2.01;61.79
61436;BME280;47304;47.456;19.160;2023-03-19T05:16:16;100647.82;;;2.02;61.84
61436;BME280;47304;47.456;19.160;2023-03-19T05:18:43;100648.02;;;2.03;62.15
61436;BME280;47304;47.456;19.160;2023-03-19T05:21:11;100651.13;;;2.03;62.04
61436;BME280;47304;47.456;19.160;2023-03-19T05:23:38;100649.21;;;2.02;62.27
61436;BME280;47304;47.456;19.160;2023-03-19T05:26:06;100650.45;;;2.03;62.44
61436;BME280;47304;47.456;19.160;2023-03-19T05:28:33;100656.53;;;2.04;62.45
61436;BME280;47304;47.456;19.160;2023-03-19T05:31:01;100656.80;;;2.06;62.64
61436;BME280;47304;47.456;19.160;2023-03-19T05:33:29;100660.53;;;2.09;62.63
61436;BME280;47304;47.456;19.160;2023-03-19T05:35:55;100660.59;;;2.11;62.57
61436;BME280;47304;47.456;19.160;2023-03-19T05:38:23;100663.72;;;2.15;62.41
61436;BME280;47304;47.456;19.160;2023-03-19T05:40:50;100669.26;;;2.20;62.38
61436;BME280;47304;47.456;19.160;2023-03-19T05:43:16;100678.66;;;2.27;62.36
61436;BME280;47304;47.456;19.160;2023-03-19T05:45:49;100671.62;;;2.32;62.31
61436;BME280;47304;47.456;19.160;2023-03-19T05:48:16;100673.79;;;2.40;62.33
61436;BME280;47304;47.456;19.160;2023-03-19T05:50:42;100678.43;;;2.48;62.07
61436;BME280;47304;47.456;19.160;2023-03-19T05:53:09;100681.59;;;2.59;61.81
61436;BME280;47304;47.456;19.160;2023-03-19T05:55:35;100680.30;;;2.71;61.60
61436;BME280;47304;47.456;19.160;2023-03-19T05:58:02;100680.61;;;2.85;61.37
61436;BME280;47304;47.456;19.160;2023-03-19T06:00:29;100682.48;;;2.98;61.06
61436;BME280;47304;47.456;19.160;2023-03-19T06:02:55;100674.64;;;3.12;60.80
61436;BME280;47304;47.456;19.160;2023-03-19T06:05:23;100669.41;;;3.26;60.54
61436;BME280;47304;47.456;19.160;2023-03-19T06:07:50;100668.29;;;3.39;60.33
61436;BME280;47304;47.456;19.160;2023-03-19T06:10:16;100674.30;;;3.53;60.07
61436;BME280;47304;47.456;19.160;2023-03-19T06:12:43;100672.67;;;3.67;59.89
61436;BME280;47304;47.456;19.160;2023-03-19T06:15:10;100669.11;;;3.81;59.40
61436;BME280;47304;47.456;19.160;2023-03-19T06:17:37;100670.05;;;3.94;58.94
61436;BME280;47304;47.456;19.160;2023-03-19T06:20:03;100675.83;;;4.07;58.65
61436;BME280;47304;47.456;19.160;2023-03-19T06:22:30;100680.58;;;4.21;58.30
61436;BME280;47304;47.456;19.160;2023-03-19T06:24:57;100682.86;;;4.33;58.14
61436;BME280;47304;47.456;19.160;2023-03-19T06:27:23;100677.45;;;4.44;57.66
61436;BME280;47304;47.456;19.160;2023-03-19T06:29:50;100682.29;;;4.55;57.20
61436;BME280;47304;47.456;19.160;2023-03-19T06:32:16;100683.13;;;4.66;56.97
61436;BME280;47304;47.456;19.160;2023-03-19T06:34:43;100686.04;;;4.78;56.74
61436;BME280;47304;47.456;19.160;2023-03-19T06:37:10;100683.41;;;4.89;56.35
61436;BME280;47304;47.456;19.160;2023-03-19T06:39:37;100686.68;;;5.01;55.98
61436;BME280;47304;47.456;19.160;2023-03-19T06:42:04;100689.62;;;5.13;55.48
61436;BME280;47304;47.456;19.160;2023-03-19T06:44:30;100693.06;;;5.25;55.09
61436;BME280;47304;47.456;19.160;2023-03-19T06:46:57;100699.80;;;5.37;54.66
61436;BME280;47304;47.456;19.160;2023-03-19T06:49:24;100696.98;;;5.50;54.23
61436;BME280;47304;47.456;19.160;2023-03-19T06:51:50;100698.84;;;5.61;54.08
61436;BME280;47304;47.456;19.160;2023-03-19T06:54:17;100700.37;;;5.74;53.72
61436;BME280;47304;47.456;19.160;2023-03-19T06:56:43;100700.98;;;5.85;52.82
61436;BME280;47304;47.456;19.160;2023-03-19T06:59:10;100702.64;;;5.96;52.50
61436;BME280;47304;47.456;19.160;2023-03-19T07:01:36;100704.13;;;6.06;52.11
61436;BME280;47304;47.456;19.160;2023-03-19T07:04:03;100705.29;;;6.19;52.08
61436;BME280;47304;47.456;19.160;2023-03-19T07:06:30;100700.04;;;6.33;51.65
61436;BME280;47304;47.456;19.160;2023-03-19T07:08:56;100703.11;;;6.46;50.81
61436;BME280;47304;47.456;19.160;2023-03-19T07:11:23;100696.56;;;6.58;50.54
61436;BME280;47304;47.456;19.160;2023-03-19T07:13:50;100698.90;;;6.70;50.18
61436;BME280;47304;47.456;19.160;2023-03-19T07:16:16;100699.36;;;6.83;49.87
61436;BME280;47304;47.456;19.160;2023-03-19T07:18:43;100694.73;;;6.97;49.66
61436;BME280;47304;47.456;19.160;2023-03-19T07:21:09;100685.95;;;7.11;49.16
61436;BME280;47304;47.456;19.160;2023-03-19T07:23:36;100683.59;;;7.25;48.99
61436;BME280;47304;47.456;19.160;2023-03-19T07:26:03;100682.06;;;7.37;48.26
61436;BME280;47304;47.456;19.160;2023-03-19T07:28:29;100679.83;;;7.49;48.26
61436;BME280;47304;47.456;19.160;2023-03-19T07:30:56;100680.35;;;7.60;47.76
61436;BME280;47304;47.456;19.160;2023-03-19T07:33:23;100678.52;;;7.64;47.25
61436;BME280;47304;47.456;19.160;2023-03-19T07:35:49;100679.63;;;7.68;47.12
61436;BME280;47304;47.456;19.160;2023-03-19T07:38:16;100677.79;;;7.73;46.88
61436;BME280;47304;47.456;19.160;2023-03-19T07:40:43;100676.35;;;7.82;46.74
61436;BME280;47304;47.456;19.160;2023-03-19T07:43:24;100678.23;;;7.90;46.77
61436;BME280;47304;47.456;19.160;2023-03-19T07:45:51;100684.52;;;8.02;46.64
61436;BME280;47304;47.456;19.160;2023-03-19T07:48:17;100677.87;;;8.14;45.86
61436;BME280;47304;47.456;19.160;2023-03-19T07:50:44;100683.59;;;8.23;45.26
61436;BME280;47304;47.456;19.160;2023-03-19T07:53:11;100684.42;;;8.33;44.92
61436;BME280;47304;47.456;19.160;2023-03-19T07:55:37;100679.15;;;8.43;45.01
61436;BME280;47304;47.456;19.160;2023-03-19T07:58:04;100675.34;;;8.56;44.55
61436;BME280;47304;47.456;19.160;2023-03-19T08:00:31;100673.58;;;8.69;44.53
61436;BME280;47304;47.456;19.160;2023-03-19T08:02:58;100671.65;;;8.84;44.11
61436;BME280;47304;47.456;19.160;2023-03-19T08:05:25;100670.91;;;8.96;43.30
61436;BME280;47304;47.456;19.160;2023-03-19T08:07:51;100672.80;;;9.09;43.43
61436;BME280;47304;47.456;19.160;2023-03-19T08:10:18;100672.05;;;9.22;42.57
61436;BME280;47304;47.456;19.160;2023-03-19T08:12:45;100670.73;;;9.30;41.99
61436;BME280;47304;47.456;19.160;2023-03-19T08:15:11;100666.25;;;9.37;42.03
61436;BME280;47304;47.456;19.160;2023-03-19T08:17:38;100665.30;;;9.47;41.91
61436;BME280;47304;47.456;19.160;2023-03-19T08:20:10;100662.06;;;9.58;42.25
61436;BME280;47304;47.456;19.160;2023-03-19T08:22:38;100658.49;;;9.71;42.06
61436;BME280;47304;47.456;19.160;2023-03-19T08:25:06;100663.33;;;9.87;41.67
61436;BME280;47304;47.456;19.160;2023-03-19T08:27:33;100659.59;;;10.02;41.43
61436;BME280;47304;47.456;19.160;2023-03-19T08:30:01;100662.33;;;10.20;41.12
61436;BME280;47304;47.456;19.160;2023-03-19T08:32:27;100662.24;;;10.35;40.34
61436;BME280;47304;47.456;19.160;2023-03-19T08:34:54;100665.30;;;10.50;40.39
61436;BME280;47304;47.456;19.160;2023-03-19T08:37:21;100668.69;;;10.59;39.39
61436;BME280;47304;47.456;19.160;2023-03-19T08:39:50;100672.55;;;10.66;38.71
61436;BME280;47304;47.456;19.160;2023-03-19T08:42:18;100676.06;;;10.67;38.57
61436;BME280;47304;47.456;19.160;2023-03-19T08:44:45;100669.25;;;10.71;39.39
61436;BME280;47304;47.456;19.160;2023-03-19T08:47:11;100673.50;;;10.84;39.13
61436;BME280;47304;47.456;19.160;2023-03-19T08:49:39;100669.49;;;10.94;37.88
61436;BME280;47304;47.456;19.160;2023-03-19T08:52:06;100663.73;;;10.97;37.97
61436;BME280;47304;47.456;19.160;2023-03-19T08:54:33;100666.38;;;11.04;38.11
61436;BME280;47304;47.456;19.160;2023-03-19T08:57:00;100660.09;;;11.20;38.13
61436;BME280;47304;47.456;19.160;2023-03-19T08:59:27;100658.89;;;11.39;38.51
61436;BME280;47304;47.456;19.160;2023-03-19T09:01:54;100655.56;;;11.50;36.88
61436;BME280;47304;47.456;19.160;2023-03-19T09:04:21;100652.40;;;11.52;36.78
61436;BME280;47304;47.456;19.160;2023-03-19T09:06:48;100652.59;;;11.62;37.51
61436;BME280;47304;47.456;19.160;2023-03-19T09:09:15;100648.36;;;11.77;36.80
61436;BME280;47304;47.456;19.160;2023-03-19T09:11:41;100649.39;;;11.88;36.42
61436;BME280;47304;47.456;19.160;2023-03-19T09:14:08;100649.75;;;12.00;36.56
61436;BME280;47304;47.456;19.160;2023-03-19T09:16:34;100640.42;;;12.16;36.58
61436;BME280;47304;47.456;19.160;2023-03-19T09:19:01;100643.00;;;12.32;36.39
61436;BME280;47304;47.456;19.160;2023-03-19T09:21:28;100638.73;;;12.45;35.64
61436;BME280;47304;47.456;19.160;2023-03-19T09:23:54;100633.94;;;12.60;36.07
61436;BME280;47304;47.456;19.160;2023-03-19T09:26:21;100635.95;;;12.81;35.77
61436;BME280;47304;47.456;19.160;2023-03-19T09:28:48;100635.04;;;13.14;35.49
61436;BME280;47304;47.456;19.160;2023-03-19T09:31:14;100636.77;;;13.67;34.77
61436;BME280;47304;47.456;19.160;2023-03-19T09:33:41;100630.36;;;14.55;33.65
61436;BME280;47304;47.456;19.160;2023-03-19T09:36:08;100618.48;;;16.38;32.92
61436;BME280;47304;47.456;19.160;2023-03-19T09:38:35;100611.10;;;19.54;29.52
61436;BME280;47304;47.456;19.160;2023-03-19T09:41:30;100605.01;;;22.30;26.50
61436;BME280;47304;47.456;19.160;2023-03-19T09:44:03;100593.55;;;24.93;24.07
61436;BME280;47304;47.456;19.160;2023-03-19T09:49:29;100588.23;;;28.47;20.33
61436;BME280;47304;47.456;19.160;2023-03-19T09:52:44;100593.68;;;30.35;18.36
61436;BME280;47304;47.456;19.160;2023-03-19T09:54:52;100589.02;;;32.00;17.45
61436;BME280;47304;47.456;19.160;2023-03-19T09:57:21;100587.88;;;33.45;15.78
61436;BME280;47304;47.456;19.160;2023-03-19T09:59:48;100583.61;;;34.51;14.91
61436;BME280;47304;47.456;19.160;2023-03-19T10:02:39;100582.21;;;35.08;14.38
61436;BME280;47304;47.456;19.160;2023-03-19T10:05:18;100580.62;;;34.42;13.84
61436;BME280;47304;47.456;19.160;2023-03-19T10:12:56;100584.66;;;29.18;14.67
61436;BME280;47304;47.456;19.160;2023-03-19T10:15:29;100587.21;;;27.87;16.57
61436;BME280;47304;47.456;19.160;2023-03-19T10:18:24;100587.80;;;26.81;17.25
61436;BME280;47304;47.456;19.160;2023-03-19T10:23:32;100587.14;;;25.97;18.92
61436;BME280;47304;47.456;19.160;2023-03-19T10:26:03;100576.15;;;26.75;18.01
61436;BME280;47304;47.456;19.160;2023-03-19T10:28:30;100572.89;;;27.70;17.29
61436;BME280;47304;47.456;19.160;2023-03-19T10:33:52;100567.02;;;29.08;16.08
61436;BME280;47304;47.456;19.160;2023-03-19T10:36:26;100564.61;;;29.87;15.70
61436;BME280;47304;47.456;19.160;2023-03-19T10:38:56;100557.89;;;31.13;14.40
61436;BME280;47304;47.456;19.160;2023-03-19T10:44:29;100551.30;;;33.74;13.16
61436;BME280;47304;47.456;19.160;2023-03-19T10:46:57;100548.45;;;35.15;12.26
61436;BME280;47304;47.456;19.160;2023-03-19T10:49:24;100541.44;;;36.00;11.84
61436;BME280;47304;47.456;19.160;2023-03-19T10:51:51;100532.15;;;37.18;11.12
61436;BME280;47304;47.456;19.160;2023-03-19T10:54:23;100528.91;;;38.51;10.31
61436;BME280;47304;47.456;19.160;2023-03-19T10:56:54;100523.02;;;39.87;9.30
61436;BME280;47304;47.456;19.160;2023-03-19T11:02:02;100516.77;;;42.53;8.81
61436;BME280;47304;47.456;19.160;2023-03-19T11:04:29;100514.26;;;42.49;8.07
61436;BME280;47304;47.456;19.160;2023-03-19T11:07:18;100508.48;;;41.90;7.96
61436;BME280;47304;47.456;19.160;2023-03-19T11:09:48;100504.08;;;41.71;7.87
61436;BME280;47304;47.456;19.160;2023-03-19T11:12:21;100503.90;;;41.75;7.69
61436;BME280;47304;47.456;19.160;2023-03-19T11:14:52;100500.76;;;41.83;7.86
61436;BME280;47304;47.456;19.160;2023-03-19T11:17:26;100496.92;;;41.31;7.94
61436;BME280;47304;47.456;19.160;2023-03-19T11:19:57;100489.86;;;40.61;8.00
61436;BME280;47304;47.456;19.160;2023-03-19T11:22:31;100483.30;;;39.91;8.40
61436;BME280;47304;47.456;19.160;2023-03-19T11:25:00;100480.95;;;39.41;8.36
61436;BME280;47304;47.456;19.160;2023-03-19T11:27:34;100478.44;;;38.57;8.76
61436;BME280;47304;47.456;19.160;2023-03-19T11:30:11;100471.10;;;37.65;9.40
61436;BME280;47304;47.456;19.160;2023-03-19T11:33:09;100467.96;;;36.92;9.88
61436;BME280;47304;47.456;19.160;2023-03-19T11:38:22;100460.02;;;35.89;9.96
61436;BME280;47304;47.456;19.160;2023-03-19T11:46:38;100447.66;;;33.09;11.21
61436;BME280;47304;47.456;19.160;2023-03-19T11:54:42;100442.66;;;29.99;13.07
61436;BME280;47304;47.456;19.160;2023-03-19T11:57:17;100444.34;;;28.51;13.80
61436;BME280;47304;47.456;19.160;2023-03-19T12:05:32;100438.04;;;25.08;16.52
61436;BME280;47304;47.456;19.160;2023-03-19T12:11:00;100434.02;;;23.90;17.85
61436;BME280;47304;47.456;19.160;2023-03-19T12:22:01;100417.05;;;21.88;19.43
61436;BME280;47304;47.456;19.160;2023-03-19T12:27:51;100417.17;;;21.37;20.33
61436;BME280;47304;47.456;19.160;2023-03-19T12:30:33;100415.11;;;21.15;20.88
61436;BME280;47304;47.456;19.160;2023-03-19T12:35:49;100407.17;;;20.54;20.70
61436;BME280;47304;47.456;19.160;2023-03-19T12:38:20;100396.26;;;20.24;21.10
61436;BME280;47304;47.456;19.160;2023-03-19T12:41:22;100399.09;;;20.11;21.38
61436;BME280;47304;47.456;19.160;2023-03-19T12:46:54;100389.89;;;20.01;21.77
61436;BME280;47304;47.456;19.160;2023-03-19T12:49:30;100386.52;;;19.96;22.11
61436;BME280;47304;47.456;19.160;2023-03-19T12:52:12;100382.26;;;19.96;22.39
61436;BME280;47304;47.456;19.160;2023-03-19T12:54:44;100380.18;;;20.04;22.26
61436;BME280;47304;47.456;19.160;2023-03-19T12:57:18;100373.52;;;20.15;22.31
61436;BME280;47304;47.456;19.160;2023-03-19T12:59:54;100370.64;;;20.20;22.07
61436;BME280;47304;47.456;19.160;2023-03-19T13:02:41;100363.27;;;20.18;22.08
61436;BME280;47304;47.456;19.160;2023-03-19T13:07:56;100354.70;;;19.92;22.22
61436;BME280;47304;47.456;19.160;2023-03-19T13:10:25;100349.71;;;19.87;22.86
61436;BME280;47304;47.456;19.160;2023-03-19T13:12:52;100349.67;;;19.88;22.18
61436;BME280;47304;47.456;19.160;2023-03-19T13:15:32;100349.83;;;19.93;22.10
61436;BME280;47304;47.456;19.160;2023-03-19T13:20:43;100350.42;;;20.05;22.17
61436;BME280;47304;47.456;19.160;2023-03-19T13:23:27;100347.52;;;20.16;22.26
61436;BME280;47304;47.456;19.160;2023-03-19T13:25:57;100342.85;;;20.12;22.45
61436;BME280;47304;47.456;19.160;2023-03-19T13:28:29;100341.98;;;19.99;22.70
61436;BME280;47304;47.456;19.160;2023-03-19T13:31:03;100336.68;;;19.84;22.51
61436;BME280;47304;47.456;19.160;2023-03-19T13:33:33;100334.09;;;19.63;22.60
61436;BME280;47304;47.456;19.160;2023-03-19T13:36:03;100335.79;;;19.32;22.55
61436;BME280;47304;47.456;19.160;2023-03-19T13:38:37;100334.46;;;19.10;22.98
61436;BME280;47304;47.456;19.160;2023-03-19T13:41:05;100329.48;;;19.00;23.21
61436;BME280;47304;47.456;19.160;2023-03-19T13:54:14;100310.95;;;18.87;23.71
61436;BME280;47304;47.456;19.160;2023-03-19T13:57:03;100306.80;;;18.74;23.76
61436;BME280;47304;47.456;19.160;2023-03-19T13:59:34;100295.90;;;18.50;23.65
61436;BME280;47304;47.456;19.160;2023-03-19T14:04:59;100289.70;;;18.13;24.58
61436;BME280;47304;47.456;19.160;2023-03-19T14:07:34;100285.98;;;18.13;24.72
61436;BME280;47304;47.456;19.160;2023-03-19T14:12:36;100283.95;;;18.82;24.32
61436;BME280;47304;47.456;19.160;2023-03-19T14:15:14;100286.67;;;19.16;23.56
61436;BME280;47304;47.456;19.160;2023-03-19T14:23:17;100280.21;;;19.17;23.05
61436;BME280;47304;47.456;19.160;2023-03-19T14:26:01;100286.00;;;18.90;23.23
61436;BME280;47304;47.456;19.160;2023-03-19T14:28:52;100292.58;;;18.64;23.38
61436;BME280;47304;47.456;19.160;2023-03-19T14:31:33;100288.97;;;18.45;23.67